Time;durP1;ratioP1;P1;durP2;ratioP2;P2;SDS_P1;SDS_P2;PMS_P1;PMS_P2;Temp;Humidity;BMP_temperature;BMP_pressure;BME280_temperature;BME280_humidity;BME280_pressure;Samples;Min_cycle;Max_cycle;Signal;HPM_P1;HPM_P2
2021/06/16 00:01:02;;;;;;;4.60;4.10;;;21.30;99.90;;;;;;5073255;28;20210;-63
2021/06/16 00:03:28;;;;;;;4.90;4.10;;;21.20;99.90;;;;;;5074931;28;20255;-64
2021/06/16 00:05:54;;;;;;;4.97;3.70;;;21.20;99.90;;;;;;5074975;28;20175;-57
2021/06/16 00:08:19;;;;;;;14.20;3.67;;;21.20;99.90;;;;;;5074926;28;20218;-60
2021/06/16 00:10:45;;;;;;;4.97;3.97;;;21.20;99.90;;;;;;5075269;28;20171;-60
2021/06/16 00:13:11;;;;;;;4.30;3.90;;;21.20;99.90;;;;;;5073222;28;20189;-63
2021/06/16 00:15:41;;;;;;;4.83;4.00;;;21.10;99.90;;;;;;5075065;28;20177;-59
2021/06/16 00:18:07;;;;;;;7.10;4.07;;;21.10;99.90;;;;;;5073423;28;20391;-63
2021/06/16 00:20:34;;;;;;;4.73;3.87;;;21.10;99.90;;;;;;5071672;28;20175;-63
2021/06/16 00:23:00;;;;;;;4.43;3.87;;;21.00;99.90;;;;;;5074421;28;20292;-56
2021/06/16 00:25:26;;;;;;;5.33;4.13;;;21.00;99.90;;;;;;5073474;28;20185;-62
2021/06/16 00:27:52;;;;;;;5.13;4.10;;;20.90;99.90;;;;;;5071752;28;20194;-64
2021/06/16 00:30:18;;;;;;;4.53;4.10;;;20.90;99.90;;;;;;5064683;28;20249;-59
2021/06/16 00:32:44;;;;;;;4.17;3.77;;;20.90;99.90;;;;;;5067615;28;20253;-57
2021/06/16 00:35:12;;;;;;;5.67;4.33;;;20.80;99.90;;;;;;5074722;28;20253;-62
2021/06/16 00:37:38;;;;;;;6.40;4.00;;;20.80;99.90;;;;;;5073132;28;20246;-62
2021/06/16 00:40:05;;;;;;;5.17;3.97;;;20.80;99.90;;;;;;5055392;28;20268;-62
2021/06/16 00:42:31;;;;;;;5.63;3.87;;;20.70;99.90;;;;;;5053614;28;20203;-61
2021/06/16 00:44:56;;;;;;;4.93;4.03;;;20.70;99.90;;;;;;5053472;28;20174;-62
2021/06/16 00:47:22;;;;;;;4.90;4.40;;;20.70;99.90;;;;;;5054085;28;20191;-59
2021/06/16 00:49:47;;;;;;;4.00;3.70;;;20.70;99.90;;;;;;5054083;28;20171;-62
2021/06/16 00:52:13;;;;;;;4.33;3.90;;;20.70;99.90;;;;;;5053855;28;20173;-63
2021/06/16 00:54:39;;;;;;;6.13;4.60;;;20.60;99.90;;;;;;5052912;28;20191;-63
2021/06/16 00:57:05;;;;;;;4.47;4.07;;;20.60;99.90;;;;;;5054037;28;20198;-62
2021/06/16 00:59:40;;;;;;;4.47;4.07;;;20.60;99.90;;;;;;5054462;28;20183;-61
2021/06/16 01:02:07;;;;;;;5.20;4.10;;;20.60;99.90;;;;;;5072087;28;20255;-60
2021/06/16 01:04:34;;;;;;;4.90;4.30;;;20.50;99.90;;;;;;5073893;28;20167;-63
2021/06/16 01:07:24;;;;;;;4.80;4.10;;;20.50;99.90;;;;;;5073346;28;20209;-60
2021/06/16 01:10:18;;;;;;;4.77;4.23;;;20.40;99.90;;;;;;5071795;28;20627;-62
2021/06/16 01:12:54;;;;;;;5.73;4.20;;;20.30;99.90;;;;;;5068920;28;20559;-57
2021/06/16 01:15:22;;;;;;;4.77;4.27;;;20.40;99.90;;;;;;5073820;28;20195;-58
2021/06/16 01:17:53;;;;;;;5.13;4.13;;;20.40;99.90;;;;;;5074223;28;20527;-58
2021/06/16 01:20:40;;;;;;;4.57;4.07;;;20.30;99.90;;;;;;5074033;28;20228;-61
2021/06/16 01:23:09;;;;;;;4.37;3.93;;;20.40;99.90;;;;;;5072709;28;20214;-60
2021/06/16 01:25:46;;;;;;;4.27;3.87;;;20.30;99.90;;;;;;5073770;28;20175;-61
2021/06/16 01:28:14;;;;;;;6.27;4.30;;;20.30;99.90;;;;;;5072834;28;20194;-60
2021/06/16 01:30:42;;;;;;;4.87;4.03;;;20.20;99.90;;;;;;5074313;28;20175;-57
2021/06/16 01:33:10;;;;;;;4.73;3.80;;;20.30;99.90;;;;;;5074095;28;20170;-60
2021/06/16 01:35:39;;;;;;;5.10;4.00;;;20.30;99.90;;;;;;5072571;28;20638;-62
2021/06/16 01:38:06;;;;;;;4.00;3.60;;;20.30;99.90;;;;;;5073780;28;20225;-60
2021/06/16 01:40:33;;;;;;;5.00;3.97;;;20.20;99.90;;;;;;5072738;28;20162;-62
2021/06/16 01:43:01;;;;;;;5.83;4.07;;;20.10;99.90;;;;;;5073325;28;20677;-60
2021/06/16 01:45:31;;;;;;;5.00;4.50;;;20.20;99.90;;;;;;5073409;28;20530;-61
2021/06/16 01:47:58;;;;;;;5.03;4.27;;;20.10;99.90;;;;;;5073178;28;20542;-61
2021/06/16 01:50:25;;;;;;;6.30;4.40;;;20.10;99.90;;;;;;5074007;28;20173;-60
2021/06/16 01:52:54;;;;;;;6.30;4.50;;;20.00;99.90;;;;;;5072407;28;20232;-61
2021/06/16 01:55:19;;;;;;;4.40;4.00;;;20.00;99.90;;;;;;5073837;28;20175;-58
2021/06/16 01:57:46;;;;;;;4.70;3.97;;;19.90;99.90;;;;;;5070897;28;20209;-57
2021/06/16 02:00:13;;;;;;;7.77;5.40;;;19.90;99.90;;;;;;5074020;28;20224;-60
2021/06/16 02:02:39;;;;;;;8.90;6.00;;;19.90;99.90;;;;;;5072206;28;20682;-62
2021/06/16 02:05:08;;;;;;;7.97;5.90;;;19.80;99.90;;;;;;5073683;28;20178;-59
2021/06/16 02:07:41;;;;;;;6.20;5.60;;;19.80;99.90;;;;;;5073153;28;20190;-61
2021/06/16 02:10:09;;;;;;;6.90;5.47;;;19.80;99.90;;;;;;5074184;28;20166;-61
2021/06/16 02:12:38;;;;;;;6.83;4.90;;;19.80;99.90;;;;;;5072000;28;20186;-61
2021/06/16 02:15:11;;;;;;;8.53;6.10;;;19.80;99.90;;;;;;5073242;28;20179;-58
2021/06/16 02:17:38;;;;;;;6.03;5.43;;;19.70;99.90;;;;;;5073330;28;20273;-60
2021/06/16 02:20:06;;;;;;;9.30;6.47;;;19.70;99.90;;;;;;5072663;28;20562;-62
2021/06/16 02:22:32;;;;;;;8.40;7.10;;;19.60;99.90;;;;;;5072901;28;20201;-59
2021/06/16 02:24:58;;;;;;;8.57;7.73;;;19.60;99.90;;;;;;5076033;28;20187;-60
2021/06/16 02:27:23;;;;;;;10.43;8.50;;;19.60;99.90;;;;;;5077152;28;20677;-62
2021/06/16 02:29:49;;;;;;;9.13;8.23;;;19.60;99.90;;;;;;5076589;28;20623;-61
2021/06/16 02:32:15;;;;;;;10.63;5.93;;;19.60;99.90;;;;;;5076000;28;20178;-61
2021/06/16 02:34:41;;;;;;;6.93;5.87;;;19.60;99.90;;;;;;5077088;28;20185;-60
2021/06/16 02:37:10;;;;;;;6.10;5.50;;;19.50;99.90;;;;;;5075472;28;20218;-60
2021/06/16 02:39:42;;;;;;;7.47;6.77;;;19.50;99.90;;;;;;5076802;28;20237;-60
2021/06/16 02:42:10;;;;;;;9.43;7.20;;;19.40;99.90;;;;;;5075645;28;20577;-60
2021/06/16 02:44:41;;;;;;;7.93;6.83;;;19.40;99.90;;;;;;5076133;28;20533;-62
2021/06/16 02:47:08;;;;;;;7.47;6.67;;;19.40;99.90;;;;;;5076443;28;20239;-61
2021/06/16 02:49:38;;;;;;;7.80;7.00;;;19.40;99.90;;;;;;5076251;28;20167;-61
2021/06/16 02:52:07;;;;;;;11.47;8.47;;;19.40;99.90;;;;;;5075226;28;20186;-59
2021/06/16 02:54:35;;;;;;;7.07;6.37;;;19.40;99.90;;;;;;5076334;28;20153;-61
2021/06/16 02:57:03;;;;;;;7.80;5.77;;;19.40;99.90;;;;;;5076375;28;20533;-60
2021/06/16 02:59:31;;;;;;;6.17;5.53;;;19.40;99.90;;;;;;5075648;28;20162;-60
2021/06/16 03:01:57;;;;;;;8.10;5.70;;;19.40;99.90;;;;;;5076079;28;20226;-62
2021/06/16 03:04:24;;;;;;;6.80;5.37;;;19.40;99.90;;;;;;5076776;28;20162;-59
2021/06/16 03:06:52;;;;;;;6.33;5.00;;;19.30;99.90;;;;;;5075005;28;20208;-59
2021/06/16 03:09:19;;;;;;;7.67;5.37;;;19.40;99.90;;;;;;5076400;28;20592;-59
2021/06/16 03:11:45;;;;;;;6.20;5.37;;;19.30;99.90;;;;;;5074877;28;20170;-61
2021/06/16 03:14:12;;;;;;;5.90;5.30;;;19.40;99.90;;;;;;5075777;28;20634;-61
2021/06/16 03:16:41;;;;;;;5.70;5.03;;;19.30;99.90;;;;;;5076095;28;20656;-62
2021/06/16 03:19:08;;;;;;;7.93;5.33;;;19.30;99.90;;;;;;5075852;28;20255;-62
2021/06/16 03:21:35;;;;;;;6.53;5.07;;;19.30;99.90;;;;;;5075201;28;20190;-60
2021/06/16 03:24:01;;;;;;;6.40;4.93;;;19.40;99.90;;;;;;5075228;28;20492;-61
2021/06/16 03:26:28;;;;;;;6.53;5.40;;;19.30;99.90;;;;;;5075751;28;20269;-59
2021/06/16 03:28:55;;;;;;;6.03;4.93;;;19.40;99.90;;;;;;5074667;28;20644;-58
2021/06/16 03:31:21;;;;;;;6.17;5.40;;;19.30;99.90;;;;;;5075451;28;20193;-62
2021/06/16 03:33:48;;;;;;;6.67;5.43;;;19.30;99.90;;;;;;5074414;28;20194;-60
2021/06/16 03:36:15;;;;;;;6.53;5.00;;;19.40;99.90;;;;;;5074556;28;20624;-58
2021/06/16 03:38:42;;;;;;;5.40;4.90;;;19.30;99.90;;;;;;5074392;28;20190;-59
2021/06/16 03:41:09;;;;;;;5.63;5.07;;;19.30;99.90;;;;;;5075295;28;20198;-61
2021/06/16 03:43:36;;;;;;;5.30;4.80;;;19.40;99.90;;;;;;5075255;28;20173;-62
2021/06/16 03:46:09;;;;;;;8.80;5.20;;;19.40;99.90;;;;;;5075938;28;20614;-61
2021/06/16 03:48:36;;;;;;;5.20;4.70;;;19.40;99.90;;;;;;5074727;28;20273;-58
2021/06/16 03:51:03;;;;;;;5.50;4.83;;;19.40;99.90;;;;;;5074363;28;20623;-59
2021/06/16 03:53:29;;;;;;;6.47;4.90;;;19.40;99.90;;;;;;5075323;28;20253;-57
2021/06/16 03:55:56;;;;;;;7.97;4.57;;;19.30;99.90;;;;;;5074127;28;20175;-61
2021/06/16 03:58:22;;;;;;;5.20;4.67;;;19.20;99.90;;;;;;5074996;28;20226;-60
2021/06/16 04:00:49;;;;;;;4.67;4.27;;;19.20;99.90;;;;;;5074835;28;20204;-59
2021/06/16 04:03:15;;;;;;;5.37;4.60;;;19.20;99.90;;;;;;5073733;28;20295;-60
2021/06/16 04:05:42;;;;;;;4.97;4.47;;;19.30;99.90;;;;;;5075305;28;20531;-61
2021/06/16 04:08:09;;;;;;;4.43;4.00;;;19.30;99.90;;;;;;5073886;28;20561;-61
2021/06/16 04:10:36;;;;;;;6.13;4.63;;;19.30;99.90;;;;;;5075524;28;20175;-59
2021/06/16 04:13:03;;;;;;;4.57;4.13;;;19.40;99.90;;;;;;5074953;28;20208;-59
2021/06/16 04:15:29;;;;;;;5.00;4.50;;;19.40;99.90;;;;;;5073594;28;20187;-62
2021/06/16 04:17:58;;;;;;;4.80;4.30;;;19.40;99.90;;;;;;5074862;28;20194;-59
2021/06/16 04:20:23;;;;;;;4.80;4.20;;;19.50;99.90;;;;;;5073894;28;20178;-62
2021/06/16 04:22:49;;;;;;;5.10;4.60;;;19.60;99.90;;;;;;5074541;28;20241;-61
2021/06/16 04:25:14;;;;;;;7.67;4.37;;;19.60;99.90;;;;;;5074970;28;20205;-60
2021/06/16 04:27:40;;;;;;;5.90;4.27;;;19.70;99.90;;;;;;5074275;28;20193;-61
2021/06/16 04:30:11;;;;;;;5.57;4.27;;;19.70;99.90;;;;;;5075129;28;20514;-60
2021/06/16 04:32:38;;;;;;;6.33;4.23;;;19.80;99.90;;;;;;5074532;28;20182;-61
2021/06/16 04:35:09;;;;;;;5.40;4.17;;;19.80;99.90;;;;;;5074365;28;20175;-60
2021/06/16 04:37:34;;;;;;;4.97;4.17;;;19.80;99.90;;;;;;5073250;28;20272;-62
2021/06/16 04:40:00;;;;;;;4.00;3.60;;;19.90;99.90;;;;;;5074263;28;20186;-59
2021/06/16 04:42:26;;;;;;;4.27;3.83;;;20.00;99.90;;;;;;5073016;28;20285;-62
2021/06/16 04:44:52;;;;;;;4.47;3.90;;;20.10;99.90;;;;;;5074051;28;20185;-58
2021/06/16 04:47:18;;;;;;;5.93;3.83;;;20.10;99.90;;;;;;5074000;28;20195;-58
2021/06/16 04:49:44;;;;;;;3.93;3.53;;;20.10;99.90;;;;;;5074484;28;20209;-60
2021/06/16 04:52:10;;;;;;;4.03;3.63;;;20.20;99.90;;;;;;5073138;28;20289;-59
2021/06/16 04:54:36;;;;;;;4.13;3.73;;;20.20;99.90;;;;;;5074620;28;20559;-60
2021/06/16 04:57:05;;;;;;;4.10;3.70;;;20.30;99.90;;;;;;5073966;28;20685;-60
2021/06/16 04:59:32;;;;;;;3.83;3.53;;;20.40;99.90;;;;;;5073277;28;20170;-62
2021/06/16 05:01:58;;;;;;;4.57;3.80;;;20.40;99.90;;;;;;5073815;28;20248;-58
2021/06/16 05:04:23;;;;;;;4.27;3.40;;;20.40;99.90;;;;;;5074083;28;20158;-62
2021/06/16 05:06:49;;;;;;;3.80;3.50;;;20.50;99.90;;;;;;5073001;28;20209;-60
2021/06/16 05:09:14;;;;;;;5.10;3.67;;;20.60;99.90;;;;;;5073911;28;20182;-61
2021/06/16 05:11:40;;;;;;;4.87;3.77;;;20.70;99.90;;;;;;5067246;28;20184;-62
2021/06/16 05:14:05;;;;;;;4.83;4.10;;;20.60;99.90;;;;;;5052829;28;20179;-62
2021/06/16 05:16:31;;;;;;;5.47;3.97;;;20.50;99.90;;;;;;5059455;28;20203;-61
2021/06/16 05:18:58;;;;;;;4.27;3.80;;;20.50;99.90;;;;;;5074045;28;20171;-60
2021/06/16 05:21:24;;;;;;;5.23;4.07;;;20.40;99.90;;;;;;5067864;28;20298;-61
2021/06/16 05:23:50;;;;;;;4.00;3.60;;;20.40;99.90;;;;;;5064789;28;20198;-60
2021/06/16 05:26:16;;;;;;;4.40;4.00;;;20.70;99.90;;;;;;5074263;28;20277;-61
2021/06/16 05:28:41;;;;;;;4.53;3.93;;;20.80;99.90;;;;;;5072767;28;20171;-63
2021/06/16 05:31:09;;;;;;;6.27;3.90;;;21.00;99.90;;;;;;5073495;28;20240;-61
2021/06/16 05:33:35;;;;;;;4.13;3.73;;;21.20;99.90;;;;;;5072457;28;20249;-63
2021/06/16 05:36:00;;;;;;;4.27;3.77;;;21.20;99.90;;;;;;5059946;28;20270;-62
2021/06/16 05:38:26;;;;;;;4.37;3.93;;;21.30;99.90;;;;;;5052405;28;20222;-61
2021/06/16 05:40:51;;;;;;;4.10;3.70;;;21.40;99.90;;;;;;5054723;28;20179;-60
2021/06/16 05:43:17;;;;;;;5.67;3.67;;;21.50;99.90;;;;;;5052390;28;20256;-58
2021/06/16 05:45:42;;;;;;;4.60;3.97;;;21.50;99.90;;;;;;5071052;28;20178;-63
2021/06/16 05:48:08;;;;;;;3.97;3.67;;;21.60;99.90;;;;;;5071074;28;20747;-60
2021/06/16 05:50:34;;;;;;;6.00;4.00;;;21.70;99.90;;;;;;5054910;28;20658;-62
2021/06/16 05:52:59;;;;;;;4.38;3.60;;;21.80;99.90;;;;;;5054966;28;20257;-61
2021/06/16 05:55:25;;;;;;;3.80;3.43;;;21.90;99.90;;;;;;5067111;28;20212;-62
2021/06/16 05:57:50;;;;;;;4.07;3.53;;;21.90;99.90;;;;;;5053867;28;20274;-63
2021/06/16 06:00:17;;;;;;;4.00;3.60;;;22.00;99.90;;;;;;5058545;28;20184;-63
2021/06/16 06:02:42;;;;;;;4.10;3.70;;;22.10;99.90;;;;;;5057127;28;20243;-64
2021/06/16 06:05:08;;;;;;;3.63;3.25;;;22.20;99.90;;;;;;5058176;28;20189;-61
2021/06/16 06:07:34;;;;;;;4.20;3.70;;;22.20;99.90;;;;;;5077166;28;20593;-62
2021/06/16 06:09:59;;;;;;;4.35;3.95;;;22.30;99.90;;;;;;5071018;28;20214;-61
2021/06/16 06:12:25;;;;;;;4.32;3.92;;;22.40;99.90;;;;;;5060132;28;20173;-62
2021/06/16 06:14:50;;;;;;;4.10;3.70;;;22.50;99.90;;;;;;5075974;28;20496;-60
2021/06/16 06:17:16;;;;;;;4.88;3.85;;;22.60;99.90;;;;;;5064470;28;20287;-61
2021/06/16 06:19:42;;;;;;;5.32;3.40;;;22.70;99.90;;;;;;5056202;28;20182;-59
2021/06/16 06:22:07;;;;;;;4.25;3.83;;;22.70;99.90;;;;;;5056768;28;20589;-59
2021/06/16 06:24:33;;;;;;;4.93;3.50;;;22.70;99.90;;;;;;5055457;28;20752;-62
2021/06/16 06:26:59;;;;;;;4.28;3.72;;;22.70;99.90;;;;;;5056872;28;20197;-54
2021/06/16 06:29:26;;;;;;;4.22;3.83;;;22.70;99.90;;;;;;5055784;28;20173;-62
2021/06/16 06:31:52;;;;;;;4.15;3.75;;;22.80;99.90;;;;;;5056389;28;20654;-62
2021/06/16 06:34:18;;;;;;;4.10;3.38;;;22.80;99.90;;;;;;5055392;28;20298;-61
2021/06/16 06:36:44;;;;;;;3.58;3.30;;;22.90;99.90;;;;;;5055470;28;20333;-62
2021/06/16 06:39:09;;;;;;;4.97;3.63;;;22.90;99.90;;;;;;5057264;28;20189;-60
2021/06/16 06:41:36;;;;;;;4.53;3.53;;;23.10;99.90;;;;;;5055912;28;20213;-59
2021/06/16 06:44:01;;;;;;;3.53;3.22;;;23.00;99.90;;;;;;5056437;28;20623;-61
2021/06/16 06:46:27;;;;;;;4.43;3.78;;;23.10;99.90;;;;;;5056656;28;20221;-62
2021/06/16 06:48:52;;;;;;;4.22;3.63;;;23.20;99.90;;;;;;5056600;28;20171;-61
2021/06/16 06:51:18;;;;;;;7.70;3.90;;;23.20;99.90;;;;;;5056634;28;20171;-63
2021/06/16 06:53:43;;;;;;;4.10;3.45;;;23.10;99.90;;;;;;5054100;28;20285;-58
2021/06/16 06:56:09;;;;;;;3.78;3.38;;;23.20;99.90;;;;;;5056418;28;20183;-62
2021/06/16 06:58:35;;;;;;;4.13;3.70;;;23.20;99.90;;;;;;5055148;28;20216;-63
2021/06/16 07:01:00;;;;;;;3.60;3.30;;;23.20;99.90;;;;;;5055982;28;20198;-61
2021/06/16 07:03:26;;;;;;;5.70;3.67;;;23.20;99.90;;;;;;5056554;28;20206;-61
2021/06/16 07:05:53;;;;;;;4.43;3.88;;;23.20;99.90;;;;;;5056954;28;20179;-63
2021/06/16 07:08:18;;;;;;;5.03;3.78;;;23.20;99.90;;;;;;5055899;28;20543;-61
2021/06/16 07:10:44;;;;;;;6.63;3.67;;;23.30;99.90;;;;;;5056149;28;20635;-61
2021/06/16 07:13:10;;;;;;;5.50;3.95;;;23.40;99.90;;;;;;5054786;28;20198;-62
2021/06/16 07:15:35;;;;;;;4.53;3.42;;;23.40;99.90;;;;;;5056261;28;20558;-62
2021/06/16 07:18:01;;;;;;;4.00;3.60;;;23.60;99.90;;;;;;5053697;28;20205;-63
2021/06/16 07:20:26;;;;;;;5.05;3.60;;;23.70;99.90;;;;;;5055973;28;20578;-63
2021/06/16 07:22:53;;;;;;;6.35;3.83;;;23.90;99.90;;;;;;5055567;28;20559;-62
2021/06/16 07:25:19;;;;;;;4.82;3.65;;;23.90;99.90;;;;;;5054879;28;20183;-61
2021/06/16 07:27:45;;;;;;;6.07;4.00;;;24.00;99.90;;;;;;5055653;28;20266;-56
2021/06/16 07:30:12;;;;;;;4.30;3.70;;;24.10;99.90;;;;;;5054893;28;20666;-62
2021/06/16 07:32:39;;;;;;;6.18;3.92;;;24.20;99.90;;;;;;5055800;28;20582;-62
2021/06/16 07:35:05;;;;;;;3.67;3.38;;;24.30;99.90;;;;;;5055479;28;20168;-62
2021/06/16 07:37:31;;;;;;;3.75;3.45;;;24.40;99.90;;;;;;5055448;28;20636;-61
2021/06/16 07:39:57;;;;;;;5.07;3.67;;;24.50;99.90;;;;;;5056303;28;20646;-62
2021/06/16 07:42:23;;;;;;;3.65;3.33;;;24.60;99.90;;;;;;5054330;28;20302;-62
2021/06/16 07:44:49;;;;;;;5.55;4.10;;;24.60;99.90;;;;;;5055583;28;20250;-62
2021/06/16 07:47:15;;;;;;;5.93;3.75;;;24.60;99.90;;;;;;5055336;28;20654;-63
2021/06/16 07:49:40;;;;;;;4.35;3.90;;;24.60;99.90;;;;;;5054377;28;20186;-62
2021/06/16 07:52:07;;;;;;;4.95;3.50;;;24.70;99.90;;;;;;5055196;28;20576;-61
2021/06/16 07:54:32;;;;;;;4.03;3.60;;;24.90;99.90;;;;;;5055283;28;20167;-60
2021/06/16 07:56:58;;;;;;;4.18;3.78;;;25.10;99.90;;;;;;5054207;28;20290;-58
2021/06/16 07:59:23;;;;;;;7.32;4.18;;;25.20;99.90;;;;;;5055240;28;20178;-62
2021/06/16 08:01:49;;;;;;;5.28;3.95;;;25.20;99.90;;;;;;5054807;28;20215;-61
2021/06/16 08:04:15;;;;;;;4.07;3.65;;;25.30;99.90;;;;;;5054782;28;20175;-61
2021/06/16 08:06:41;;;;;;;4.85;4.15;;;25.20;99.90;;;;;;5054472;28;20194;-59
2021/06/16 08:09:06;;;;;;;5.15;4.47;;;25.20;99.90;;;;;;5054301;28;20167;-59
2021/06/16 08:11:32;;;;;;;5.25;3.95;;;25.10;99.90;;;;;;5054468;28;20236;-59
2021/06/16 08:13:58;;;;;;;4.28;3.88;;;25.20;99.90;;;;;;5053574;28;20181;-62
2021/06/16 08:16:24;;;;;;;5.13;4.10;;;25.30;99.90;;;;;;5055115;28;20651;-58
2021/06/16 08:18:51;;;;;;;4.85;3.92;;;25.40;99.90;;;;;;5054200;28;20193;-61
2021/06/16 08:21:18;;;;;;;5.68;4.15;;;25.40;99.90;;;;;;5053762;28;20179;-61
2021/06/16 08:23:44;;;;;;;4.30;3.92;;;25.40;99.90;;;;;;5053681;28;20241;-61
2021/06/16 08:26:11;;;;;;;5.95;4.30;;;25.40;99.90;;;;;;5054601;28;20611;-59
2021/06/16 08:28:37;;;;;;;4.32;3.85;;;25.60;99.90;;;;;;5054433;28;20220;-61
2021/06/16 08:31:03;;;;;;;6.43;4.20;;;25.60;99.90;;;;;;5053815;28;20178;-58
2021/06/16 08:33:29;;;;;;;4.97;3.92;;;25.70;99.90;;;;;;5055036;28;20175;-60
2021/06/16 08:35:54;;;;;;;5.47;4.28;;;25.80;99.90;;;;;;5055009;28;20171;-54
2021/06/16 08:38:20;;;;;;;6.32;4.10;;;25.90;99.90;;;;;;5054285;28;20203;-61
2021/06/16 08:40:45;;;;;;;5.15;3.78;;;26.20;99.90;;;;;;5054277;28;20171;-61
2021/06/16 08:43:13;;;;;;;4.63;4.05;;;26.40;99.90;;;;;;5052981;28;20227;-57
2021/06/16 08:45:41;;;;;;;4.40;4.00;;;26.50;99.90;;;;;;5054985;28;20175;-56
2021/06/16 08:48:07;;;;;;;5.03;3.70;;;26.50;99.90;;;;;;5053507;28;20187;-61
2021/06/16 08:50:33;;;;;;;4.90;3.75;;;26.60;99.90;;;;;;5054775;28;20172;-60
2021/06/16 08:52:59;;;;;;;3.95;3.47;;;26.70;99.90;;;;;;5052871;28;20181;-60
2021/06/16 08:55:25;;;;;;;4.15;3.75;;;26.80;99.90;;;;;;5052885;28;20191;-60
2021/06/16 08:57:51;;;;;;;4.88;3.78;;;26.90;99.90;;;;;;5053613;28;20197;-62
2021/06/16 09:00:18;;;;;;;3.97;3.53;;;26.90;99.90;;;;;;5052986;28;20258;-62
2021/06/16 09:02:44;;;;;;;4.50;3.40;;;26.90;99.90;;;;;;5053776;28;20195;-62
2021/06/16 09:05:11;;;;;;;6.18;3.75;;;26.90;99.90;;;;;;5054158;28;20245;-61
2021/06/16 09:07:39;;;;;;;5.28;3.85;;;26.90;99.90;;;;;;5053090;28;20191;-62
2021/06/16 09:10:14;;;;;;;4.25;3.55;;;26.80;99.90;;;;;;5053341;28;20225;-61
2021/06/16 09:12:49;;;;;;;4.18;3.15;;;26.90;99.90;;;;;;5053009;28;20242;-61
2021/06/16 09:15:18;;;;;;;5.60;3.70;;;27.10;99.90;;;;;;5053734;28;20159;-58
2021/06/16 09:18:06;;;;;;;6.00;3.97;;;27.10;99.90;;;;;;5053973;28;20670;-56
2021/06/16 09:20:36;;;;;;;4.05;3.60;;;27.40;99.90;;;;;;5054282;28;20175;-62
2021/06/16 09:23:18;;;;;;;4.20;3.47;;;27.50;99.90;;;;;;5052482;28;20263;-60
2021/06/16 09:26:02;;;;;;;3.75;3.45;;;27.60;99.90;;;;;;5054234;28;20143;-61
2021/06/16 09:28:43;;;;;;;4.18;3.50;;;27.80;99.90;;;;;;5052685;28;20191;-61
2021/06/16 09:31:12;;;;;;;5.85;3.75;;;27.90;99.90;;;;;;5053752;28;20523;-61
2021/06/16 09:33:38;;;;;;;5.07;3.60;;;28.00;99.90;;;;;;5055113;28;20206;-60
2021/06/16 09:36:10;;;;;;;4.50;3.60;;;28.00;99.90;;;;;;5057274;28;20254;-60
2021/06/16 09:38:36;;;;;;;5.07;3.40;;;28.00;99.90;;;;;;5057743;28;20218;-62
2021/06/16 09:41:11;;;;;;;4.28;3.40;;;27.90;99.60;;;;;;5056870;28;20213;-61
2021/06/16 09:43:39;;;;;;;4.55;3.38;;;27.80;99.60;;;;;;5057681;28;20202;-60
2021/06/16 09:46:08;;;;;;;3.78;3.40;;;27.90;99.90;;;;;;5075013;28;20179;-61
2021/06/16 09:48:41;;;;;;;4.80;3.30;;;28.00;99.20;;;;;;5077613;28;20610;-66
2021/06/16 09:51:25;;;;;;;4.32;3.50;;;28.10;99.90;;;;;;5077594;28;20183;-59
2021/06/16 09:54:11;;;;;;;3.63;3.28;;;28.20;99.90;;;;;;5076706;28;20619;-60
2021/06/16 09:56:38;;;;;;;3.95;3.03;;;28.20;99.50;;;;;;5077507;28;20269;-62
2021/06/16 09:59:04;;;;;;;5.22;3.30;;;28.40;99.80;;;;;;5076519;28;20175;-62
2021/06/16 10:01:48;;;;;;;3.50;3.10;;;28.60;99.90;;;;;;5077346;28;20228;-62
2021/06/16 10:04:57;;;;;;;5.30;3.47;;;29.00;98.60;;;;;;5076514;28;20653;-61
2021/06/16 10:07:33;;;;;;;4.65;3.75;;;28.90;98.20;;;;;;5035344;28;20195;-60
2021/06/16 10:10:02;;;;;;;5.47;3.53;;;29.20;98.50;;;;;;5033912;28;20176;-60
2021/06/16 10:12:34;;;;;;;5.03;3.67;;;29.20;97.90;;;;;;5034753;28;20695;-56
2021/06/16 10:15:03;;;;;;;4.72;3.28;;;29.10;96.20;;;;;;5035323;28;20183;-59
2021/06/16 10:17:29;;;;;;;4.57;3.20;;;29.00;97.70;;;;;;5033772;28;20215;-62
2021/06/16 10:19:56;;;;;;;3.67;2.95;;;29.10;96.90;;;;;;5034868;28;20255;-62
2021/06/16 10:22:22;;;;;;;3.60;3.10;;;29.30;98.00;;;;;;5033927;28;20671;-61
2021/06/16 10:24:48;;;;;;;4.28;3.10;;;29.60;98.20;;;;;;5034696;28;20191;-59
2021/06/16 10:27:36;;;;;;;3.55;3.25;;;29.40;96.20;;;;;;5035063;28;20659;-60
2021/06/16 10:30:15;;;;;;;4.90;3.42;;;29.30;96.80;;;;;;5033372;28;20242;-60
2021/06/16 10:32:43;;;;;;;3.30;3.00;;;29.40;96.80;;;;;;5034679;28;20219;-63
2021/06/16 10:35:11;;;;;;;3.20;2.90;;;29.50;96.10;;;;;;5034288;28;20207;-62
2021/06/16 10:37:44;;;;;;;3.15;2.85;;;29.60;94.70;;;;;;5047688;28;20225;-62
2021/06/16 10:40:16;;;;;;;3.15;2.85;;;29.80;95.80;;;;;;5076905;28;20201;-61
2021/06/16 10:43:03;;;;;;;3.55;3.03;;;30.00;95.30;;;;;;5076347;28;20206;-59
2021/06/16 10:45:37;;;;;;;3.13;2.70;;;30.10;94.00;;;;;;5075146;28;20197;-62
2021/06/16 10:48:07;;;;;;;3.83;2.80;;;30.00;94.60;;;;;;5076543;28;20191;-58
2021/06/16 10:50:45;;;;;;;3.05;2.70;;;30.20;95.40;;;;;;5077292;28;20163;-63
2021/06/16 10:53:15;;;;;;;3.08;2.78;;;30.40;95.60;;;;;;5075292;28;20201;-61
2021/06/16 10:55:53;;;;;;;2.80;2.55;;;30.50;94.70;;;;;;5076600;28;20167;-62
2021/06/16 10:58:33;;;;;;;2.78;2.50;;;30.20;93.00;;;;;;5076348;28;20371;-61
2021/06/16 11:01:17;;;;;;;3.60;2.80;;;30.30;95.40;;;;;;5075590;28;20255;-62
2021/06/16 11:03:54;;;;;;;4.30;2.60;;;30.50;92.70;;;;;;5076359;28;20182;-60
2021/06/16 11:06:41;;;;;;;2.90;2.70;;;30.50;94.90;;;;;;5076150;28;20638;-61
2021/06/16 11:09:14;;;;;;;3.60;2.58;;;30.90;93.20;;;;;;5074656;28;20263;-60
2021/06/16 11:12:00;;;;;;;2.80;2.58;;;31.10;91.60;;;;;;5076041;28;20187;-63
2021/06/16 11:14:35;;;;;;;3.15;2.58;;;31.40;92.20;;;;;;5076400;28;20496;-57
2021/06/16 11:17:06;;;;;;;3.00;2.40;;;31.50;92.80;;;;;;5075719;28;20649;-63
2021/06/16 11:19:37;;;;;;;2.40;2.20;;;31.60;90.80;;;;;;5076851;28;20174;-62
2021/06/16 11:22:26;;;;;;;2.55;2.13;;;31.60;89.60;;;;;;5075762;28;20201;-59
2021/06/16 11:25:18;;;;;;;4.43;2.17;;;31.50;87.10;;;;;;5074999;28;20253;-62
2021/06/16 11:28:11;;;;;;;3.65;2.38;;;31.30;85.40;;;;;;5076178;28;20190;-62
2021/06/16 11:30:41;;;;;;;2.70;2.50;;;31.10;86.00;;;;;;5074977;28;20204;-62
2021/06/16 11:33:15;;;;;;;2.80;2.50;;;30.90;86.70;;;;;;5075525;28;20638;-59
2021/06/16 11:38:19;;;;;;;2.20;2.00;;;30.80;84.80;;;;;;5075815;28;20206;-62
2021/06/16 11:40:58;;;;;;;3.30;2.13;;;30.60;84.50;;;;;;5074974;28;20248;-62
2021/06/16 11:44:00;;;;;;;2.17;1.88;;;30.60;86.70;;;;;;5075202;28;20198;-62
2021/06/16 11:46:30;;;;;;;3.25;2.25;;;30.60;80.80;;;;;;5013830;28;20234;-60
2021/06/16 11:49:05;;;;;;;2.30;2.10;;;30.50;83.10;;;;;;5013998;28;20256;-63
2021/06/16 11:51:37;;;;;;;2.88;1.98;;;30.60;77.40;;;;;;5013336;28;20583;-61
2021/06/16 11:54:22;;;;;;;2.38;2.17;;;30.80;82.10;;;;;;5012778;28;20156;-60
2021/06/16 11:57:00;;;;;;;2.80;2.30;;;30.80;80.60;;;;;;5012584;28;20209;-63
2021/06/16 11:59:34;;;;;;;3.10;2.20;;;30.60;78.30;;;;;;5012402;28;20176;-61
2021/06/16 12:02:09;;;;;;;2.65;1.90;;;30.60;83.40;;;;;;5012960;28;20279;-62
2021/06/16 12:04:55;;;;;;;2.30;2.10;;;30.60;78.00;;;;;;5013031;28;20271;-61
2021/06/16 12:07:23;;;;;;;2.05;1.92;;;30.50;82.30;;;;;;5012887;28;20192;-62
2021/06/16 12:09:51;;;;;;;2.25;2.00;;;30.50;82.60;;;;;;5013558;28;20181;-62
2021/06/16 12:12:18;;;;;;;3.58;2.30;;;30.50;82.60;;;;;;5011755;28;20189;-61
2021/06/16 12:14:44;;;;;;;2.20;2.00;;;30.50;79.60;;;;;;5012963;28;20173;-62
2021/06/16 12:17:09;;;;;;;2.90;2.00;;;30.80;80.00;;;;;;5011672;28;20776;-63
2021/06/16 12:19:37;;;;;;;8.52;2.03;;;30.80;78.10;;;;;;5013020;28;20180;-63
2021/06/16 12:22:04;;;;;;;3.42;2.00;;;30.90;81.00;;;;;;5016751;28;20295;-60
2021/06/16 12:24:33;;;;;;;1.85;1.75;;;30.90;76.50;;;;;;5074219;28;20700;-63
2021/06/16 12:27:16;;;;;;;1.95;1.70;;;30.70;79.00;;;;;;5074638;28;20206;-61
2021/06/16 12:29:47;;;;;;;2.72;1.90;;;31.00;80.30;;;;;;5074543;28;20508;-62
2021/06/16 12:32:24;;;;;;;2.45;2.05;;;31.30;77.00;;;;;;5074357;28;20198;-63
2021/06/16 12:35:07;;;;;;;2.20;1.90;;;31.30;76.60;;;;;;5073464;28;20239;-59
2021/06/16 12:37:32;;;;;;;2.17;1.98;;;31.40;77.70;;;;;;5074203;28;20218;-62
2021/06/16 12:40:03;;;;;;;2.38;1.75;;;31.60;76.50;;;;;;5074694;28;20182;-61
2021/06/16 12:42:55;;;;;;;2.45;1.95;;;31.60;78.10;;;;;;5072991;28;20449;-59
2021/06/16 12:45:25;;;;;;;2.30;1.92;;;31.70;75.10;;;;;;5071298;28;20194;-61
2021/06/16 12:47:51;;;;;;;2.05;1.85;;;31.60;74.10;;;;;;5073962;28;20229;-61
2021/06/16 12:50:33;;;;;;;2.03;1.92;;;31.60;73.80;;;;;;5073617;28;20186;-61
2021/06/16 12:53:10;;;;;;;8.02;2.30;;;31.50;73.80;;;;;;5073978;28;20178;-63
2021/06/16 12:55:42;;;;;;;2.67;2.20;;;31.60;75.00;;;;;;5073115;28;20217;-62
2021/06/16 12:58:07;;;;;;;3.65;2.05;;;31.70;78.20;;;;;;5074293;28;20199;-63